Time;durP1;ratioP1;P1;durP2;ratioP2;P2;SDS_P1;SDS_P2;PMS_P1;PMS_P2;Temp;Humidity;BMP_temperature;BMP_pressure;BME280_temperature;BME280_humidity;BME280_pressure;Samples;Min_cycle;Max_cycle;Signal;HPM_P1;HPM_P2
2022/04/12 00:00:55;;;;;;;12.43;7.80;;;10.90;76.30;;;;;;10289082;28;20630;-89
2022/04/12 00:05:58;;;;;;;13.37;7.83;;;11.00;75.70;;;;;;10288690;28;20258;-90
2022/04/12 00:11:01;;;;;;;18.17;10.90;;;11.10;75.40;;;;;;10289041;28;20633;-90
2022/04/12 00:16:03;;;;;;;17.07;9.30;;;10.60;75.30;;;;;;10272156;28;20237;-90
2022/04/12 00:21:07;;;;;;;20.37;10.60;;;10.90;76.70;;;;;;10271304;28;20667;-89
2022/04/12 00:26:10;;;;;;;14.57;8.13;;;11.10;74.70;;;;;;10271913;28;20280;-90
2022/04/12 00:31:13;;;;;;;13.87;8.80;;;11.00;75.90;;;;;;10288286;28;20257;-90
2022/04/12 00:36:16;;;;;;;21.27;13.27;;;11.10;75.20;;;;;;10271196;28;20239;-89
2022/04/12 00:41:18;;;;;;;21.47;13.63;;;10.70;74.60;;;;;;10288178;28;20641;-90
2022/04/12 00:46:21;;;;;;;22.63;13.07;;;10.00;76.90;;;;;;10270368;28;20265;-90
2022/04/12 00:51:24;;;;;;;17.93;10.60;;;10.20;77.30;;;;;;10254505;28;20205;-90
2022/04/12 00:56:26;;;;;;;15.37;9.80;;;10.60;76.90;;;;;;10288091;28;20264;-89
2022/04/12 01:01:29;;;;;;;18.47;11.57;;;10.90;75.90;;;;;;10271052;28;20690;-90
2022/04/12 01:06:32;;;;;;;28.80;14.80;;;11.00;75.30;;;;;;10287765;28;20253;-89
2022/04/12 01:11:34;;;;;;;32.53;19.23;;;11.00;74.80;;;;;;10270071;28;20606;-89
2022/04/12 01:16:37;;;;;;;23.80;13.00;;;10.50;74.20;;;;;;10273372;28;20213;-90
2022/04/12 01:21:54;;;;;;;18.47;10.53;;;10.80;75.80;;;;;;10262867;28;20268;-89
2022/04/12 01:26:57;;;;;;;25.13;13.93;;;10.30;78.00;;;;;;10295756;28;20245;-89
2022/04/12 01:32:00;;;;;;;20.37;12.97;;;10.80;75.40;;;;;;10284493;28;20282;-89
2022/04/12 01:37:03;;;;;;;19.90;12.53;;;10.90;75.10;;;;;;10294210;28;21018;-90
2022/04/12 01:42:07;;;;;;;24.87;13.43;;;11.20;74.40;;;;;;10276653;28;20758;-89
2022/04/12 01:47:09;;;;;;;21.60;13.83;;;11.30;73.40;;;;;;10276763;28;20313;-89
2022/04/12 01:52:12;;;;;;;15.53;10.30;;;11.20;73.40;;;;;;10292914;28;20300;-89
2022/04/12 01:57:14;;;;;;;26.60;15.07;;;10.80;75.20;;;;;;10275712;28;20547;-89
2022/04/12 02:02:17;;;;;;;25.93;14.97;;;10.90;73.50;;;;;;10276546;28;20303;-89
2022/04/12 02:07:19;;;;;;;31.63;18.57;;;9.80;76.90;;;;;;10293247;28;20261;-89
2022/04/12 02:12:22;;;;;;;18.70;13.20;;;9.90;76.80;;;;;;10275345;28;20233;-89
2022/04/12 02:17:24;;;;;;;20.47;13.27;;;10.10;77.70;;;;;;10290825;28;20633;-89
2022/04/12 02:22:27;;;;;;;19.60;12.77;;;10.60;76.60;;;;;;10293129;28;20229;-89
2022/04/12 02:27:29;;;;;;;23.37;14.33;;;10.70;75.50;;;;;;10292196;28;20797;-88
2022/04/12 02:32:32;;;;;;;33.40;18.37;;;10.50;75.80;;;;;;10276142;28;20257;-89
2022/04/12 02:37:35;;;;;;;20.43;12.60;;;10.20;75.30;;;;;;10292655;28;20241;-89
2022/04/12 02:42:37;;;;;;;25.87;15.83;;;10.70;75.50;;;;;;10279630;28;20213;-88
2022/04/12 02:47:40;;;;;;;21.13;14.53;;;10.70;73.90;;;;;;10282826;28;20305;-89
2022/04/12 02:52:42;;;;;;;15.90;10.63;;;10.50;75.20;;;;;;10274676;28;20233;-88
2022/04/12 02:57:45;;;;;;;25.03;13.90;;;11.10;74.90;;;;;;10290863;28;20246;-89
2022/04/12 03:02:47;;;;;;;18.33;11.97;;;11.30;72.00;;;;;;10273197;28;20237;-88
2022/04/12 03:07:50;;;;;;;19.40;12.80;;;11.10;73.60;;;;;;10271605;28;20317;-88
2022/04/12 03:12:52;;;;;;;15.93;11.20;;;10.90;74.70;;;;;;10250852;29;20681;-88
2022/04/12 03:17:56;;;;;;;21.40;12.30;;;10.90;74.10;;;;;;10233710;29;20217;-89
2022/04/12 03:22:59;;;;;;;20.57;11.37;;;11.40;72.80;;;;;;10250596;29;20234;-89
2022/04/12 03:28:02;;;;;;;27.40;15.10;;;12.10;71.70;;;;;;10233194;29;20250;-89
2022/04/12 03:33:04;;;;;;;15.77;10.87;;;11.60;70.80;;;;;;10250144;29;20234;-88
2022/04/12 03:38:07;;;;;;;15.37;9.70;;;11.90;71.70;;;;;;10236841;29;20754;-88
2022/04/12 03:43:09;;;;;;;18.23;11.53;;;12.30;70.60;;;;;;10255939;28;20590;-88
2022/04/12 03:48:12;;;;;;;13.57;9.70;;;12.50;69.40;;;;;;10232345;29;20294;-88
2022/04/12 03:53:14;;;;;;;22.73;14.17;;;12.60;69.60;;;;;;10227235;29;20226;-89
2022/04/12 03:58:19;;;;;;;22.30;14.17;;;12.00;69.20;;;;;;10247994;29;20262;-90
2022/04/12 04:03:27;;;;;;;22.53;13.87;;;11.40;71.40;;;;;;10224835;29;20257;-89
2022/04/12 04:08:31;;;;;;;24.20;13.77;;;11.10;71.80;;;;;;10225635;28;20253;-88
2022/04/12 04:13:36;;;;;;;26.63;15.13;;;11.20;72.20;;;;;;10247546;29;20241;-88
2022/04/12 04:18:39;;;;;;;21.00;13.00;;;11.20;71.60;;;;;;10211651;29;20237;-88
2022/04/12 04:23:41;;;;;;;27.77;16.20;;;11.10;71.80;;;;;;10229967;29;20269;-89
2022/04/12 04:28:45;;;;;;;15.53;9.83;;;10.90;71.90;;;;;;10228923;29;20253;-88
2022/04/12 04:33:47;;;;;;;22.30;13.90;;;10.90;75.20;;;;;;10214413;29;20249;-88
2022/04/12 04:38:50;;;;;;;21.57;13.90;;;10.80;73.40;;;;;;10248135;29;20233;-88
2022/04/12 04:43:52;;;;;;;30.27;15.73;;;10.80;73.50;;;;;;10229431;29;20206;-88
2022/04/12 04:48:55;;;;;;;20.03;11.87;;;11.20;72.30;;;;;;10247373;29;20731;-88
2022/04/12 04:53:58;;;;;;;37.63;21.63;;;10.90;73.30;;;;;;10241756;29;20206;-89
2022/04/12 04:59:01;;;;;;;23.30;14.03;;;10.80;70.70;;;;;;10260425;29;20250;-89
2022/04/12 05:04:03;;;;;;;33.17;16.20;;;10.70;74.40;;;;;;10260312;28;20276;-88
2022/04/12 05:09:06;;;;;;;24.47;15.70;;;11.00;73.40;;;;;;10251655;28;20340;-87
2022/04/12 05:14:08;;;;;;;28.80;15.77;;;11.00;72.50;;;;;;10299335;28;20268;-87
2022/04/12 05:19:11;;;;;;;51.73;28.57;;;11.10;72.80;;;;;;10281345;28;20249;-87
2022/04/12 05:24:13;;;;;;;47.27;27.87;;;11.20;61.40;;;;;;10282533;28;20698;-87
2022/04/12 05:29:16;;;;;;;40.90;23.50;;;12.20;60.30;;;;;;10281826;28;20252;-87
2022/04/12 05:34:18;;;;;;;43.23;26.80;;;12.50;60.40;;;;;;10300010;28;20237;-87
2022/04/12 05:39:21;;;;;;;41.27;23.40;;;12.20;60.90;;;;;;10299325;28;20265;-87
2022/04/12 05:44:23;;;;;;;44.60;25.27;;;12.00;61.60;;;;;;10282208;28;20245;-87
2022/04/12 05:49:26;;;;;;;40.80;26.70;;;12.10;61.70;;;;;;10282011;28;20323;-87
2022/04/12 05:54:28;;;;;;;46.00;26.97;;;11.90;62.20;;;;;;10299729;28;20283;-86
2022/04/12 05:59:31;;;;;;;44.13;25.07;;;11.60;63.40;;;;;;10297304;28;20292;-87
2022/04/12 06:04:34;;;;;;;47.73;24.17;;;12.30;62.50;;;;;;10292204;28;20230;-87
2022/04/12 06:09:36;;;;;;;40.90;22.73;;;11.90;63.10;;;;;;10275789;28;20246;-86
2022/04/12 06:14:38;;;;;;;38.40;22.53;;;12.80;61.70;;;;;;10266806;28;20265;-87
2022/04/12 06:19:41;;;;;;;34.53;22.57;;;13.30;61.30;;;;;;10234888;29;20764;-86
2022/04/12 06:24:44;;;;;;;33.50;20.87;;;13.00;61.70;;;;;;10235035;29;20261;-86
2022/04/12 06:29:46;;;;;;;38.40;21.23;;;13.40;61.10;;;;;;10234843;29;20319;-86
2022/04/12 06:34:49;;;;;;;32.10;20.30;;;13.70;60.50;;;;;;10251966;29;20239;-86
2022/04/12 06:39:53;;;;;;;34.43;24.77;;;12.90;62.90;;;;;;10235708;29;20259;-93
2022/04/12 06:44:55;;;;;;;39.30;22.17;;;12.30;67.40;;;;;;10235502;29;20214;-84
2022/04/12 06:49:58;;;;;;;32.13;18.07;;;13.10;67.00;;;;;;10250705;29;20734;-84
2022/04/12 06:55:01;;;;;;;37.70;19.60;;;14.00;64.10;;;;;;10210405;29;20246;-85
2022/04/12 07:00:06;;;;;;;38.70;18.53;;;14.40;62.80;;;;;;10230615;29;20266;-85
2022/04/12 07:05:09;;;;;;;26.93;16.57;;;14.50;62.40;;;;;;10250236;29;20750;-85
2022/04/12 07:10:17;;;;;;;31.30;15.63;;;14.60;62.00;;;;;;10233557;28;20723;-85
2022/04/12 07:15:20;;;;;;;25.83;15.57;;;14.60;62.10;;;;;;10232289;28;20266;-85
2022/04/12 07:20:22;;;;;;;33.80;19.30;;;14.80;61.60;;;;;;10250013;29;20234;-85
2022/04/12 07:25:26;;;;;;;23.37;15.17;;;14.50;61.10;;;;;;10249918;29;20704;-85
2022/04/12 07:30:29;;;;;;;23.27;14.23;;;14.70;61.90;;;;;;10231460;29;20255;-89
2022/04/12 07:35:53;;;;;;;21.20;14.20;;;14.30;63.20;;;;;;10241944;29;20206;-93
2022/04/12 07:40:55;;;;;;;23.10;14.30;;;15.10;61.20;;;;;;10241277;29;20688;-92
2022/04/12 07:45:58;;;;;;;21.33;11.17;;;15.20;60.40;;;;;;10241127;29;20295;-90
2022/04/12 07:51:20;;;;;;;16.57;10.47;;;15.20;58.60;;;;;;10227057;29;20210;-92
2022/04/12 07:56:23;;;;;;;14.57;9.43;;;15.20;59.40;;;;;;10219941;29;20218;-91
2022/04/12 08:01:25;;;;;;;23.77;11.47;;;15.20;59.10;;;;;;10237466;29;20255;-92
2022/04/12 08:06:28;;;;;;;25.67;11.30;;;14.90;61.00;;;;;;10233247;29;20258;-92
2022/04/12 08:11:31;;;;;;;17.07;11.07;;;14.90;60.90;;;;;;10263583;28;20319;-92
2022/04/12 08:16:34;;;;;;;17.50;10.97;;;15.30;60.00;;;;;;10255218;28;20217;-93
2022/04/12 08:21:39;;;;;;;16.77;9.83;;;15.40;59.50;;;;;;10254990;28;20214;-92
2022/04/12 08:26:41;;;;;;;16.77;7.33;;;15.00;60.40;;;;;;10270982;28;20727;-92
2022/04/12 08:31:44;;;;;;;14.97;9.63;;;14.90;57.90;;;;;;10255329;28;20296;-92
2022/04/12 08:36:47;;;;;;;13.17;8.07;;;14.80;61.00;;;;;;10270498;28;20245;-92
2022/04/12 08:41:51;;;;;;;16.30;10.13;;;14.40;59.70;;;;;;10288167;28;20260;-91
2022/04/12 08:46:56;;;;;;;17.13;8.43;;;14.70;61.20;;;;;;10270156;28;20318;-91
2022/04/12 08:51:59;;;;;;;15.30;8.57;;;14.30;56.80;;;;;;10270631;28;20229;-92
2022/04/12 08:57:03;;;;;;;11.40;7.47;;;14.50;60.80;;;;;;10287763;28;20784;-92
2022/04/12 09:02:10;;;;;;;16.77;9.43;;;14.30;59.50;;;;;;10269374;28;20245;-92
2022/04/12 09:07:13;;;;;;;13.97;8.23;;;14.80;61.20;;;;;;10268387;28;20265;-92
2022/04/12 09:12:17;;;;;;;13.30;8.20;;;14.20;59.10;;;;;;10268522;28;20256;-92
2022/04/12 09:17:28;;;;;;;14.60;9.23;;;14.40;61.20;;;;;;10269161;28;20646;-92
2022/04/12 09:22:32;;;;;;;8.37;5.53;;;14.90;61.00;;;;;;10290064;28;20214;-86
2022/04/12 09:27:39;;;;;;;8.03;5.07;;;14.70;59.80;;;;;;10267966;28;20330;-86
2022/04/12 09:32:48;;;;;;;6.00;4.27;;;15.80;57.20;;;;;;10281697;28;20237;-86
2022/04/12 09:37:50;;;;;;;6.80;4.63;;;16.40;58.90;;;;;;10267234;28;20798;-86
2022/04/12 09:43:01;;;;;;;7.13;4.80;;;15.90;57.50;;;;;;10305193;28;20229;-86
2022/04/12 09:48:05;;;;;;;9.43;4.30;;;15.30;51.00;;;;;;10273078;28;20261;-86
2022/04/12 09:53:38;;;;;;;8.80;5.90;;;;;;;;;;10272880;28;20241;-86
2022/04/12 09:58:42;;;;;;;8.57;5.33;;;12.30;54.80;;;;;;10289579;28;20311;-86
2022/04/12 10:03:52;;;;;;;5.83;3.93;;;13.50;57.70;;;;;;10272106;28;20307;-86
2022/04/12 10:08:58;;;;;;;4.03;2.93;;;15.00;68.80;;;;;;10271421;28;20269;-86
2022/04/12 10:14:02;;;;;;;4.90;3.03;;;16.00;67.80;;;;;;10289142;28;20264;-86
2022/04/12 10:19:07;;;;;;;5.87;3.20;;;16.90;66.10;;;;;;10271547;28;20233;-86
2022/04/12 10:24:12;;;;;;;6.10;3.17;;;17.10;65.90;;;;;;10272313;28;20612;-86
2022/04/12 10:29:15;;;;;;;4.87;2.97;;;16.80;59.70;;;;;;10290929;28;20717;-86
2022/04/12 10:34:17;;;;;;;5.80;2.93;;;16.90;64.70;;;;;;10268247;28;20236;-85
2022/04/12 10:39:44;;;;;;;6.90;4.13;;;16.00;64.90;;;;;;10271979;28;20225;-86
2022/04/12 10:44:52;;;;;;;4.07;2.93;;;15.90;52.10;;;;;;10288497;28;20973;-86
2022/04/12 10:50:05;;;;;;;3.70;2.20;;;16.70;58.30;;;;;;10273655;28;20319;-86
2022/04/12 10:55:13;;;;;;;5.30;3.60;;;17.50;66.50;;;;;;10273615;28;20267;-86
2022/04/12 11:00:21;;;;;;;6.53;4.33;;;17.50;56.80;;;;;;10290574;28;20623;-86
2022/04/12 11:05:32;;;;;;;7.73;4.40;;;17.60;62.70;;;;;;10273741;28;20626;-85
2022/04/12 11:10:35;;;;;;;5.93;5.30;;;17.30;56.70;;;;;;10289969;28;20311;-85
2022/04/12 11:15:39;;;;;;;7.97;5.13;;;17.40;52.40;;;;;;10289712;28;20272;-86
2022/04/12 11:20:44;;;;;;;5.33;4.13;;;16.20;52.90;;;;;;10272282;28;20315;-85
2022/04/12 11:25:51;;;;;;;4.73;3.00;;;16.40;49.50;;;;;;10289550;28;20289;-85
2022/04/12 11:30:56;;;;;;;3.73;3.20;;;16.70;65.30;;;;;;10289636;28;20261;-85
2022/04/12 11:35:59;;;;;;;5.50;5.00;;;16.10;65.70;;;;;;10287898;28;20268;-86
2022/04/12 11:41:02;;;;;;;7.80;5.67;;;15.70;46.10;;;;;;10288617;28;20238;-85
2022/04/12 11:46:04;;;;;;;6.33;4.20;;;14.00;49.70;;;;;;10280708;28;20237;-85
2022/04/12 11:51:07;;;;;;;5.60;3.60;;;14.90;65.60;;;;;;10289011;28;20253;-85
2022/04/12 11:56:11;;;;;;;1.93;1.73;;;15.20;60.70;;;;;;10288816;28;20237;-85
2022/04/12 12:01:14;;;;;;;6.97;4.80;;;16.10;70.80;;;;;;10268612;28;20237;-85
2022/04/12 12:06:17;;;;;;;7.67;2.33;;;15.30;48.80;;;;;;10270045;28;20636;-85
2022/04/12 12:11:23;;;;;;;13.03;5.73;;;16.70;70.70;;;;;;10269668;28;20257;-85
2022/04/12 12:16:25;;;;;;;4.63;3.60;;;15.10;51.90;;;;;;10287269;28;20245;-85
2022/04/12 12:21:30;;;;;;;2.90;1.97;;;15.50;65.20;;;;;;10287923;28;20299;-85
2022/04/12 12:26:33;;;;;;;6.23;5.27;;;16.10;72.30;;;;;;10269176;28;20236;-85
2022/04/12 12:31:43;;;;;;;6.80;3.90;;;16.00;51.70;;;;;;10289381;28;20249;-85
2022/04/12 12:36:49;;;;;;;6.13;3.97;;;15.30;57.00;;;;;;10288204;28;20295;-85
2022/04/12 12:41:56;;;;;;;3.40;1.90;;;15.60;65.90;;;;;;10286517;28;20287;-85
2022/04/12 12:47:02;;;;;;;7.67;6.10;;;16.40;71.60;;;;;;10282681;28;20269;-85
2022/04/12 12:52:17;;;;;;;6.60;4.93;;;16.40;51.20;;;;;;10229697;29;20206;-85
2022/04/12 12:57:35;;;;;;;8.50;6.47;;;16.10;65.00;;;;;;10258151;28;20233;-85
2022/04/12 13:02:38;;;;;;;8.53;6.23;;;15.00;51.60;;;;;;10284437;28;20214;-85
2022/04/12 13:07:41;;;;;;;3.17;2.47;;;15.00;50.80;;;;;;10285534;28;20307;-85
2022/04/12 13:12:45;;;;;;;5.30;2.80;;;15.30;73.40;;;;;;10271288;28;20245;-85
2022/04/12 13:17:48;;;;;;;5.87;5.23;;;16.00;66.60;;;;;;10280043;28;20245;-85
2022/04/12 13:22:50;;;;;;;7.43;6.20;;;16.20;57.60;;;;;;10260896;28;20272;-84
2022/04/12 13:27:53;;;;;;;3.43;2.90;;;15.90;50.10;;;;;;10293907;28;20303;-84
2022/04/12 13:32:56;;;;;;;6.53;4.90;;;15.90;71.40;;;;;;10260100;28;20303;-85
2022/04/12 13:37:58;;;;;;;1.40;1.30;;;15.90;65.80;;;;;;10275351;28;20236;-85
2022/04/12 13:43:04;;;;;;;7.47;4.90;;;16.50;71.70;;;;;;10294311;28;20241;-86
2022/04/12 13:48:08;;;;;;;7.03;5.57;;;16.20;63.10;;;;;;10276803;28;20702;-91
2022/04/12 13:53:11;;;;;;;6.27;3.97;;;16.50;53.00;;;;;;10263838;28;20237;-90
2022/04/12 13:58:14;;;;;;;9.63;5.13;;;15.50;54.30;;;;;;10280772;28;20245;-92
2022/04/12 14:03:16;;;;;;;8.60;5.93;;;16.00;55.70;;;;;;10279261;28;20677;-92
2022/04/12 15:33:26;;;;;;;10.20;5.60;;;18.50;54.10;;;;;;10165017;28;20312;-89
2022/04/12 15:38:30;;;;;;;4.37;2.50;;;18.30;49.40;;;;;;10260083;28;20272;-88
2022/04/12 15:43:34;;;;;;;5.43;4.83;;;18.50;53.40;;;;;;10231931;29;20734;-89
2022/04/12 15:48:36;;;;;;;5.90;2.63;;;18.60;47.70;;;;;;10232207;29;20253;-89
2022/04/12 15:53:42;;;;;;;4.27;2.40;;;18.60;51.60;;;;;;10216169;29;20211;-88
2022/04/12 15:58:46;;;;;;;8.07;6.40;;;18.30;52.50;;;;;;10249327;29;20611;-89
2022/04/12 16:03:49;;;;;;;2.50;1.80;;;18.60;48.40;;;;;;9904621;29;10000233;-89
2022/04/12 16:08:52;;;;;;;3.87;1.87;;;18.60;53.00;;;;;;10227996;29;20261;-88
2022/04/12 16:13:55;;;;;;;3.70;2.33;;;18.80;52.70;;;;;;10223520;29;20237;-88
2022/04/12 16:18:58;;;;;;;7.63;2.47;;;18.80;53.50;;;;;;10244099;29;20297;-87
2022/04/12 16:24:00;;;;;;;3.00;1.90;;;18.50;54.10;;;;;;10244600;29;20214;-88
2022/04/12 16:29:03;;;;;;;2.50;1.63;;;18.40;54.40;;;;;;10243584;29;20598;-87
2022/04/12 16:34:07;;;;;;;3.67;2.77;;;18.60;54.70;;;;;;10247388;28;20262;-87
2022/04/12 16:39:09;;;;;;;4.77;3.73;;;18.30;54.90;;;;;;10248564;28;20242;-87
2022/04/12 16:44:12;;;;;;;8.50;4.50;;;18.30;54.00;;;;;;10252886;29;20674;-94
2022/04/12 16:49:14;;;;;;;4.67;3.53;;;18.40;49.00;;;;;;10242090;29;20238;-93
2022/04/12 16:54:17;;;;;;;13.17;7.20;;;18.40;64.40;;;;;;10229181;29;20210;-93
2022/04/12 17:13:11;;;;;;;10.37;7.07;;;13.60;55.50;;;;;;10331630;28;20237;-93
2022/04/12 17:18:19;;;;;;;10.70;7.07;;;15.90;55.50;;;;;;10317723;28;20204;-93
2022/04/12 17:23:24;;;;;;;10.40;5.57;;;15.50;56.20;;;;;;10195121;29;20267;-94
2022/04/12 17:28:30;;;;;;;12.07;7.50;;;;;;;;;;10178008;29;20271;-94
2022/04/12 17:33:46;;;;;;;15.27;10.20;;;16.60;54.60;;;;;;10194024;29;20254;-95
2022/04/12 17:39:16;;;;;;;15.53;8.37;;;16.20;52.60;;;;;;10178611;29;20206;-94
2022/04/12 17:44:28;;;;;;;6.07;4.43;;;16.40;55.80;;;;;;10194306;29;20252;-94
2022/04/12 17:50:02;;;;;;;12.03;7.43;;;16.30;56.70;;;;;;10178329;29;20246;-94
2022/04/12 17:55:24;;;;;;;17.00;9.70;;;16.30;55.40;;;;;;10154302;29;20208;-93
2022/04/12 18:00:28;;;;;;;7.90;5.20;;;16.00;55.50;;;;;;10194097;29;20239;-93
2022/04/12 18:05:36;;;;;;;11.43;6.63;;;16.00;58.30;;;;;;10199693;29;20671;-93
2022/04/12 18:10:43;;;;;;;17.67;9.50;;;16.40;56.00;;;;;;10132850;29;20309;-93
2022/04/12 18:15:49;;;;;;;13.43;7.47;;;16.50;54.40;;;;;;10238932;29;20207;-94
2022/04/12 18:20:52;;;;;;;14.90;8.60;;;16.60;54.50;;;;;;10160704;29;20214;-93
2022/04/12 18:25:55;;;;;;;14.20;8.30;;;16.70;54.40;;;;;;10160399;29;20248;-94
2022/04/12 18:31:02;;;;;;;13.73;7.47;;;16.40;54.40;;;;;;10160974;29;20643;-93
2022/04/12 18:36:08;;;;;;;11.77;6.67;;;16.20;56.50;;;;;;10159978;29;20212;-95
2022/04/12 18:41:22;;;;;;;14.13;7.83;;;16.20;56.60;;;;;;10175911;29;20216;-95
2022/04/12 18:46:26;;;;;;;11.70;6.97;;;16.30;56.80;;;;;;10193334;29;20281;-96
2022/04/12 18:52:24;;;;;;;10.97;6.27;;;16.20;56.90;;;;;;10222466;29;20230;-95
2022/04/12 18:57:29;;;;;;;11.27;6.77;;;15.90;58.20;;;;;;10247147;28;20616;-93
2022/04/12 19:02:34;;;;;;;10.97;5.47;;;15.60;58.70;;;;;;10262459;28;20206;-94
2022/04/12 19:07:42;;;;;;;11.47;7.17;;;15.80;59.20;;;;;;10232405;28;20209;-94
2022/04/12 19:12:49;;;;;;;9.57;6.07;;;15.80;58.60;;;;;;10258294;28;20324;-95
2022/04/12 19:17:52;;;;;;;9.77;5.53;;;15.80;59.30;;;;;;10234081;29;20709;-94
2022/04/12 19:22:57;;;;;;;9.87;6.77;;;15.90;59.40;;;;;;9873648;29;10000127;-95
2022/04/12 19:28:00;;;;;;;11.70;7.03;;;16.00;54.40;;;;;;10234332;29;20207;-95
2022/04/12 19:33:06;;;;;;;10.50;5.90;;;15.70;56.10;;;;;;10266140;28;20331;-95
2022/04/12 19:38:15;;;;;;;8.63;6.37;;;15.30;58.10;;;;;;10305199;28;20599;-96
2022/04/12 19:43:21;;;;;;;11.17;7.57;;;15.30;57.70;;;;;;10290590;28;20212;-94
2022/04/12 19:48:24;;;;;;;9.17;5.53;;;15.10;56.60;;;;;;10272084;28;20779;-94
2022/04/12 19:53:31;;;;;;;9.63;6.30;;;15.00;59.30;;;;;;10288113;28;20268;-93
2022/04/12 19:58:41;;;;;;;7.67;5.37;;;14.90;59.10;;;;;;10317366;28;20213;-92
2022/04/12 20:03:44;;;;;;;13.17;6.30;;;14.60;60.60;;;;;;10293324;28;20218;-94
2022/04/12 20:08:46;;;;;;;12.00;6.50;;;14.90;60.30;;;;;;10259866;28;20258;-93
2022/04/12 20:13:53;;;;;;;10.43;5.90;;;14.50;59.40;;;;;;10314378;28;20289;-94
2022/04/12 20:18:58;;;;;;;7.50;5.10;;;14.30;61.20;;;;;;10296323;28;20204;-93
2022/04/12 20:24:00;;;;;;;8.80;5.67;;;14.70;60.60;;;;;;10301686;28;20235;-91
2022/04/12 20:29:03;;;;;;;11.40;5.70;;;14.80;59.40;;;;;;10317932;28;20250;-92
2022/04/12 20:34:06;;;;;;;12.03;7.03;;;14.80;60.70;;;;;;10356505;28;20222;-92
2022/04/12 20:39:10;;;;;;;8.77;5.67;;;14.60;56.90;;;;;;10383425;28;20243;-94
2022/04/12 20:44:14;;;;;;;11.23;7.60;;;14.50;60.10;;;;;;10344223;28;20209;-93
2022/04/12 20:49:20;;;;;;;9.67;5.07;;;13.70;58.50;;;;;;10348476;28;20303;-90
2022/04/12 20:54:23;;;;;;;8.43;4.30;;;14.10;63.50;;;;;;10318333;28;20284;-92
2022/04/12 20:59:25;;;;;;;6.93;4.80;;;14.30;62.90;;;;;;10339229;28;20268;-95
2022/04/12 21:04:28;;;;;;;7.10;4.80;;;13.90;61.20;;;;;;10356719;28;20265;-92
2022/04/12 21:09:32;;;;;;;9.70;5.97;;;13.60;63.10;;;;;;10310629;28;20232;-91
2022/04/12 21:14:35;;;;;;;7.90;5.30;;;13.60;63.80;;;;;;10316389;28;20226;-91
2022/04/12 21:19:37;;;;;;;10.97;6.13;;;13.60;65.40;;;;;;10316280;28;20208;-91
2022/04/12 21:24:40;;;;;;;9.70;6.40;;;13.70;63.20;;;;;;10301727;28;20209;-92
2022/04/12 21:29:42;;;;;;;13.20;7.13;;;13.90;63.80;;;;;;10332290;28;20225;-92
2022/04/12 21:34:45;;;;;;;10.30;6.57;;;13.60;63.30;;;;;;10315932;28;20746;-93
2022/04/12 21:39:48;;;;;;;15.83;9.50;;;13.30;65.00;;;;;;10313566;28;20313;-92
2022/04/12 21:44:50;;;;;;;20.43;9.83;;;13.50;62.10;;;;;;10304302;28;20283;-93
2022/04/12 21:49:53;;;;;;;15.67;9.60;;;13.60;61.80;;;;;;10323630;28;20232;-91
2022/04/12 21:54:56;;;;;;;8.83;4.77;;;13.60;62.00;;;;;;10303988;28;20295;-92
2022/04/12 21:59:58;;;;;;;7.83;4.97;;;13.40;64.90;;;;;;10285498;28;20213;-91
2022/04/12 22:05:04;;;;;;;7.03;4.93;;;14.00;65.30;;;;;;10291795;28;20243;-92
2022/04/12 22:10:09;;;;;;;8.87;5.37;;;13.90;64.90;;;;;;10300364;28;20276;-93
2022/04/12 22:15:12;;;;;;;23.40;14.03;;;13.60;63.10;;;;;;10355509;28;20272;-93
2022/04/12 22:20:15;;;;;;;8.70;6.80;;;13.50;60.40;;;;;;10361509;28;20655;-93
2022/04/12 22:25:17;;;;;;;14.07;8.90;;;14.10;63.40;;;;;;10345224;28;20562;-92
2022/04/12 22:30:20;;;;;;;9.67;7.23;;;14.20;60.80;;;;;;10361392;28;20236;-93
2022/04/12 22:35:23;;;;;;;5.77;4.40;;;13.40;64.60;;;;;;10344830;28;20213;-93
2022/04/12 22:40:26;;;;;;;10.00;6.13;;;12.90;67.80;;;;;;10361186;28;20206;-93
2022/04/12 22:45:29;;;;;;;11.40;6.80;;;13.20;66.40;;;;;;10343984;28;20213;-92
2022/04/12 22:50:32;;;;;;;24.17;13.23;;;13.20;66.30;;;;;;10360224;28;20298;-92
2022/04/12 22:55:35;;;;;;;39.10;20.60;;;12.20;67.40;;;;;;10359648;28;20212;-92
2022/04/12 23:00:37;;;;;;;6.83;4.73;;;12.90;62.30;;;;;;10358984;28;20217;-93
2022/04/12 23:05:40;;;;;;;8.50;6.17;;;12.70;69.40;;;;;;10368925;28;20237;-93
2022/04/12 23:10:43;;;;;;;11.93;6.30;;;13.40;67.80;;;;;;10335855;28;20271;-92
2022/04/12 23:15:45;;;;;;;11.13;7.43;;;14.00;66.30;;;;;;10295512;28;20240;-92
2022/04/12 23:20:48;;;;;;;7.23;5.23;;;13.50;65.70;;;;;;10332911;28;20240;-93
2022/04/12 23:25:50;;;;;;;20.57;14.20;;;13.50;67.40;;;;;;10315554;28;20660;-93
2022/04/12 23:30:53;;;;;;;6.13;5.00;;;13.10;62.90;;;;;;10316414;28;20228;-93
2022/04/12 23:35:56;;;;;;;9.53;6.33;;;12.70;69.20;;;;;;10315185;28;20240;-93
2022/04/12 23:40:59;;;;;;;17.40;10.77;;;13.60;66.90;;;;;;10298719;28;20255;-92
2022/04/12 23:46:01;;;;;;;9.00;5.87;;;13.00;62.50;;;;;;10314236;28;20271;-92
2022/04/12 23:51:04;;;;;;;14.67;9.80;;;13.00;68.20;;;;;;10314125;28;20285;-92
2022/04/12 23:56:06;;;;;;;11.77;9.13;;;13.00;65.90;;;;;;10313153;28;20213;-93
